Time;durP1;ratioP1;P1;durP2;ratioP2;P2;SDS_P1;SDS_P2;PMS_P1;PMS_P2;Temp;Humidity;BMP_temperature;BMP_pressure;BME280_temperature;BME280_humidity;BME280_pressure;Samples;Min_cycle;Max_cycle;Signal;HPM_P1;HPM_P2
2021/12/16 00:01:48;;;;;;;49.92;26.67;;;;;;;11.86;65.81;102747.44;693278;28;1252;-80
2021/12/16 00:02:08;;;;;;;48.00;25.27;;;;;;;11.91;66.03;102761.63;690052;28;1376;-81
2021/12/16 00:02:53;;;;;;;45.60;24.70;;;;;;;11.87;66.16;102759.69;687962;28;1299;-80
2021/12/16 00:03:43;;;;;;;50.58;25.90;;;;;;;11.83;66.00;102744.63;685840;28;1246;-80
2021/12/16 00:05:21;;;;;;;52.10;26.48;;;;;;;11.97;66.16;102756.75;692542;28;1352;-80
2021/12/16 00:07:38;;;;;;;50.15;27.80;;;;;;;11.85;66.14;102746.50;688789;28;1214;-80
2021/12/16 00:08:06;;;;;;;54.80;27.80;;;;;;;11.84;65.99;102749.94;685235;28;1258;-80
2021/12/16 00:08:58;;;;;;;52.10;27.35;;;;;;;11.86;65.82;102752.66;687513;28;1028;-81
2021/12/16 00:09:27;;;;;;;52.35;27.60;;;;;;;11.94;66.04;102751.34;686515;28;1129;-80
2021/12/16 00:10:29;;;;;;;55.13;27.13;;;;;;;11.85;65.90;102745.63;682058;28;1288;-80
2021/12/16 00:11:00;;;;;;;55.05;28.40;;;;;;;11.85;66.03;102741.28;685170;28;1448;-80
2021/12/16 00:29:03;;;;;;;50.55;27.15;;;;;;;11.93;65.95;102760.03;690183;28;1325;-80
2021/12/16 00:30:09;;;;;;;58.20;27.95;;;;;;;11.91;65.81;102745.94;684129;28;1342;-80
2021/12/16 00:31:23;;;;;;;50.05;27.35;;;;;;;11.95;65.91;102753.16;691793;28;1261;-80
2021/12/16 00:32:19;;;;;;;50.25;27.65;;;;;;;11.96;65.96;102754.03;689736;28;1225;-80
2021/12/16 00:33:41;;;;;;;58.53;28.63;;;;;;;11.92;65.93;102748.66;687972;28;1463;-80
2021/12/16 00:34:03;;;;;;;64.15;29.15;;;;;;;11.93;65.80;102754.81;687464;28;1631;-80
2021/12/16 00:34:28;;;;;;;61.83;28.80;;;;;;;11.98;65.67;102755.03;686192;28;1334;-80
2021/12/16 00:34:49;;;;;;;55.88;27.77;;;;;;;11.88;65.63;102748.41;682120;28;1915;-80
2021/12/16 00:35:14;;;;;;;52.42;28.20;;;;;;;11.87;65.89;102749.22;679604;29;1193;-80
2021/12/16 00:35:35;;;;;;;54.35;29.20;;;;;;;11.88;65.88;102751.94;682055;28;1268;-80
2021/12/16 00:35:57;;;;;;;55.55;29.10;;;;;;;11.88;65.73;102754.56;681916;28;1555;-80
2021/12/16 00:36:17;;;;;;;57.72;29.02;;;;;;;11.85;66.12;102745.63;687127;28;1504;-80
2021/12/16 00:36:40;;;;;;;56.53;29.05;;;;;;;11.89;66.07;102758.97;685606;28;1267;-80
2021/12/16 00:37:01;;;;;;;51.13;28.05;;;;;;;11.81;66.15;102746.25;687158;28;1324;-80
2021/12/16 00:37:22;;;;;;;50.60;28.10;;;;;;;11.85;66.02;102746.50;682352;28;1247;-80
2021/12/16 00:37:42;;;;;;;50.30;27.53;;;;;;;11.92;66.02;102752.97;680901;29;1367;-80
2021/12/16 00:38:04;;;;;;;52.83;28.73;;;;;;;11.93;66.08;102765.25;685008;28;1235;-80
2021/12/16 00:38:24;;;;;;;52.28;27.98;;;;;;;11.88;66.01;102751.03;684089;28;1362;-80
2021/12/16 00:38:45;;;;;;;52.83;28.98;;;;;;;11.86;66.11;102747.44;689520;28;1323;-80
2021/12/16 00:39:12;;;;;;;52.25;28.20;;;;;;;11.84;66.15;102738.56;687536;28;1185;-80
2021/12/16 00:39:35;;;;;;;57.28;28.70;;;;;;;11.90;66.05;102759.84;686121;28;1263;-80
2021/12/16 00:39:56;;;;;;;57.08;28.55;;;;;;;11.86;66.33;102747.44;687708;28;1405;-80
2021/12/16 00:40:17;;;;;;;55.40;28.88;;;;;;;11.82;66.21;102735.91;684826;28;1392;-80
2021/12/16 00:40:40;;;;;;;53.17;28.10;;;;;;;11.84;66.39;102743.81;685354;28;1190;-80
2021/12/16 00:41:01;;;;;;;52.78;27.58;;;;;;;11.85;66.03;102743.00;691399;28;1370;-80
2021/12/16 00:41:22;;;;;;;50.08;27.17;;;;;;;11.89;66.14;102744.97;696037;28;1411;-80
2021/12/16 00:41:46;;;;;;;52.83;27.80;;;;;;;11.89;66.20;102753.72;687889;28;1420;-80
2021/12/16 00:42:25;;;;;;;53.85;28.52;;;;;;;11.88;66.11;102764.09;688659;28;1380;-80
2021/12/16 00:42:53;;;;;;;53.63;28.77;;;;;;;11.87;66.15;102749.22;690123;28;1378;-80
2021/12/16 00:43:21;;;;;;;59.28;28.90;;;;;;;11.83;66.32;102736.78;688479;28;1254;-80
2021/12/16 00:43:54;;;;;;;57.60;28.52;;;;;;;11.83;65.99;102739.38;688137;28;1634;-81
2021/12/16 00:44:34;;;;;;;53.74;27.68;;;;;;;11.90;66.06;102759.84;685742;28;1286;-80
2021/12/16 00:45:44;;;;;;;50.20;27.08;;;;;;;11.85;66.28;102745.63;687661;28;1286;-80
2021/12/16 00:47:28;;;;;;;51.13;27.05;;;;;;;11.85;66.09;102745.63;687709;28;1384;-80
2021/12/16 00:47:58;;;;;;;49.75;27.25;;;;;;;11.82;66.03;102734.97;691946;28;1035;-80
2021/12/16 00:49:42;;;;;;;48.47;27.58;;;;;;;11.87;66.07;102755.34;686974;28;1362;-80
2021/12/16 00:50:03;;;;;;;49.05;27.02;;;;;;;11.84;66.33;102749.94;684087;28;1237;-80
2021/12/16 00:54:13;;;;;;;52.00;27.60;;;;;;;11.87;66.17;102762.31;679150;29;1487;-80
2021/12/16 00:54:36;;;;;;;53.75;27.65;;;;;;;11.88;65.92;102764.09;682151;28;1910;-80
2021/12/16 00:55:07;;;;;;;52.53;28.08;;;;;;;11.82;66.13;102764.66;677780;29;1373;-80
2021/12/16 00:55:43;;;;;;;53.05;28.38;;;;;;;11.81;65.96;102769.81;679918;28;1407;-80
2021/12/16 00:56:07;;;;;;;55.02;28.18;;;;;;;11.73;66.17;102758.94;692721;28;1139;-80
2021/12/16 00:56:29;;;;;;;51.10;27.77;;;;;;;11.76;66.18;102762.63;689606;28;1278;-80
2021/12/16 00:56:57;;;;;;;51.30;27.70;;;;;;;11.77;66.45;102761.81;688727;28;1360;-80
2021/12/16 00:57:18;;;;;;;49.30;27.55;;;;;;;11.73;66.29;102758.94;690309;28;1306;-80
2021/12/16 00:57:41;;;;;;;51.28;26.98;;;;;;;11.79;66.03;102770.63;687953;28;1294;-80
2021/12/16 00:58:03;;;;;;;53.33;27.13;;;;;;;11.81;66.04;102769.81;686824;28;1180;-80
2021/12/16 00:58:30;;;;;;;54.08;27.20;;;;;;;11.77;66.21;102764.41;686336;28;1389;-80
2021/12/16 00:58:55;;;;;;;53.65;27.83;;;;;;;11.78;66.34;102766.22;687071;28;1310;-80
2021/12/16 00:59:18;;;;;;;53.67;27.48;;;;;;;11.77;66.04;102761.81;688792;28;1450;-80
2021/12/16 00:59:42;;;;;;;56.33;27.33;;;;;;;11.85;66.19;102772.69;687981;28;1221;-80
2021/12/16 01:00:06;;;;;;;56.45;27.15;;;;;;;11.77;66.02;102767.03;691469;28;1091;-80
2021/12/16 01:00:30;;;;;;;52.22;26.80;;;;;;;11.81;65.94;102764.56;693153;28;1332;-80
2021/12/16 01:01:00;;;;;;;51.35;26.40;;;;;;;11.78;66.25;102762.69;690068;28;1459;-80
2021/12/16 01:02:14;;;;;;;52.45;27.83;;;;;;;11.80;66.01;102766.28;687634;28;1341;-80
2021/12/16 01:03:22;;;;;;;55.53;29.13;;;;;;;11.83;66.01;102760.31;687884;28;1261;-80
2021/12/16 01:05:17;;;;;;;52.70;27.15;;;;;;;11.83;66.04;102763.84;682240;29;1169;-80
2021/12/16 01:09:05;;;;;;;50.88;27.63;;;;;;;11.74;66.29;102758.13;686032;28;1324;-80
2021/12/16 01:34:04;;;;;;;51.53;27.25;;;;;;;11.79;65.82;102778.47;689747;28;1415;-80
2021/12/16 01:35:47;;;;;;;56.22;28.77;;;;;;;11.71;66.05;102773.63;690127;28;1322;-80
2021/12/16 01:37:13;;;;;;;52.72;27.52;;;;;;;11.84;66.28;102783.03;688325;28;1326;-81
2021/12/16 01:45:28;;;;;;;55.72;27.25;;;;;;;11.78;66.30;102787.16;684710;28;1333;-81
2021/12/16 01:50:17;;;;;;;49.10;26.65;;;;;;;11.37;67.17;102781.34;687758;28;1289;-81
2021/12/16 01:50:47;;;;;;;50.60;26.73;;;;;;;11.31;67.14;102775.75;690314;28;1491;-80
2021/12/16 01:51:20;;;;;;;53.85;27.00;;;;;;;11.35;67.17;102785.59;685447;28;1145;-81
2021/12/16 01:53:22;;;;;;;50.80;27.77;;;;;;;11.20;67.60;102780.38;684922;28;1345;-80
2021/12/16 01:54:44;;;;;;;55.42;28.10;;;;;;;11.24;67.75;102795.44;684421;28;1314;-81
2021/12/16 01:55:22;;;;;;;56.10;27.20;;;;;;;11.20;67.53;102784.72;686497;28;1381;-81
2021/12/16 01:56:00;;;;;;;54.38;27.10;;;;;;;11.21;67.42;102791.72;688842;28;1440;-81
2021/12/16 01:56:43;;;;;;;50.95;27.10;;;;;;;11.16;67.26;102783.63;685224;28;1160;-81
2021/12/16 01:57:37;;;;;;;53.28;27.92;;;;;;;11.16;67.69;102799.31;684965;28;1367;-80
2021/12/16 01:58:10;;;;;;;49.65;27.50;;;;;;;11.09;67.47;102782.38;686218;28;1218;-80
2021/12/16 01:58:33;;;;;;;58.90;28.58;;;;;;;11.08;67.36;102790.13;690394;28;1274;-81
2021/12/16 01:58:58;;;;;;;60.13;28.38;;;;;;;11.03;67.47;102775.88;684884;28;1239;-81
2021/12/16 01:59:21;;;;;;;56.53;27.92;;;;;;;11.05;67.65;102789.97;687229;28;1056;-81
2021/12/16 01:59:46;;;;;;;57.22;27.50;;;;;;;11.01;67.75;102783.66;687827;28;1274;-81
2021/12/16 02:00:27;;;;;;;54.38;26.92;;;;;;;11.00;67.83;102786.16;684530;28;2040;-80
2021/12/16 02:01:30;;;;;;;53.33;27.73;;;;;;;11.05;67.57;102798.69;688924;28;794;-81
2021/12/16 02:01:39;;;;;;;60.25;29.30;;;;;;;10.96;67.80;102783.34;686349;28;1330;-81
2021/12/16 02:02:13;;;;;;;52.42;28.85;;;;;;;10.94;67.87;102782.38;684985;28;1230;-81
2021/12/16 02:02:43;;;;;;;52.90;28.55;;;;;;;10.92;67.60;102784.00;685092;28;1149;-80
2021/12/16 02:03:05;;;;;;;56.42;29.00;;;;;;;10.83;67.97;102778.25;685994;28;1314;-81
2021/12/16 02:03:47;;;;;;;55.15;28.10;;;;;;;10.88;67.81;102782.00;685076;28;1321;-81
2021/12/16 02:04:26;;;;;;;58.95;28.23;;;;;;;10.85;67.79;102787.06;683700;28;1254;-81
2021/12/16 02:06:09;;;;;;;52.88;28.02;;;;;;;10.84;67.79;102787.88;679368;29;2078;-81
2021/12/16 02:07:33;;;;;;;55.53;28.43;;;;;;;10.75;68.02;102789.94;687957;28;1204;-80
2021/12/16 02:08:28;;;;;;;57.85;28.60;;;;;;;10.78;68.40;102784.88;687809;28;1228;-81
2021/12/16 02:08:51;;;;;;;58.30;29.63;;;;;;;10.81;68.13;102795.50;684425;28;1469;-81
2021/12/16 02:09:24;;;;;;;58.40;29.58;;;;;;;10.75;68.23;102785.59;689468;28;2102;-81
2021/12/16 02:09:46;;;;;;;58.10;29.20;;;;;;;10.74;68.14;102785.53;687504;28;1155;-81
2021/12/16 02:10:10;;;;;;;60.08;29.35;;;;;;;10.79;68.07;102799.75;682142;28;1205;-81
2021/12/16 02:10:39;;;;;;;58.47;28.73;;;;;;;10.64;68.09;102782.34;684992;28;1530;-80
2021/12/16 02:11:58;;;;;;;61.17;30.63;;;;;;;10.73;68.49;102786.31;684109;28;1226;-81
2021/12/16 02:13:17;;;;;;;65.90;30.65;;;;;;;10.77;68.65;102809.22;683362;28;1391;-81
2021/12/16 02:28:42;;;;;;;72.60;32.00;;;;;;;11.22;67.99;102799.69;690427;28;1201;-81
2021/12/16 02:29:50;;;;;;;70.80;32.80;;;;;;;11.15;67.86;102797.50;686380;28;1098;-81
2021/12/16 02:32:15;;;;;;;62.60;31.08;;;;;;;11.19;67.79;102796.88;687325;28;1254;-81
2021/12/16 02:34:25;;;;;;;68.20;32.33;;;;;;;11.17;67.74;102795.88;685450;28;1274;-81
2021/12/16 02:35:30;;;;;;;70.78;32.83;;;;;;;11.15;68.29;102797.50;689107;28;1338;-81
2021/12/16 02:36:01;;;;;;;66.10;31.00;;;;;;;11.11;68.35;102795.53;684602;28;1620;-81
2021/12/16 02:36:29;;;;;;;60.42;31.52;;;;;;;11.19;67.86;102799.47;686785;28;1109;-81
2021/12/16 02:36:52;;;;;;;63.90;32.88;;;;;;;11.22;68.08;102794.44;687665;28;1135;-81
2021/12/16 02:37:19;;;;;;;66.38;32.40;;;;;;;11.20;67.90;102801.28;689352;28;1345;-81
2021/12/16 02:37:48;;;;;;;70.07;32.55;;;;;;;11.26;67.75;102792.00;684907;28;1248;-81
2021/12/16 02:38:12;;;;;;;72.38;32.63;;;;;;;11.34;67.52;102816.88;690577;28;1352;-81
2021/12/16 02:38:34;;;;;;;73.60;33.05;;;;;;;11.21;67.57;102800.50;686557;28;1164;-81
2021/12/16 02:39:03;;;;;;;72.10;33.00;;;;;;;11.12;67.83;102799.94;686963;28;1115;-81
2021/12/16 02:39:30;;;;;;;69.53;32.80;;;;;;;11.15;67.83;102793.97;689967;28;1298;-81
2021/12/16 02:39:51;;;;;;;68.82;32.78;;;;;;;11.17;67.91;102795.88;692584;28;1432;-81
2021/12/16 02:40:14;;;;;;;66.07;32.00;;;;;;;11.26;67.74;102802.44;687268;28;1500;-81
2021/12/16 02:40:35;;;;;;;64.32;31.30;;;;;;;11.31;67.67;102809.75;690096;28;1380;-81
2021/12/16 02:40:58;;;;;;;71.18;31.92;;;;;;;11.32;67.65;102800.19;684575;28;1370;-81
2021/12/16 02:41:18;;;;;;;70.78;32.47;;;;;;;11.28;67.76;102796.50;687472;28;1229;-81
2021/12/16 02:41:42;;;;;;;65.22;31.77;;;;;;;11.28;67.37;102801.72;688471;28;1377;-81
2021/12/16 02:42:13;;;;;;;63.40;31.48;;;;;;;11.33;67.38;102808.13;684475;28;1393;-81
2021/12/16 02:42:40;;;;;;;64.82;31.00;;;;;;;11.37;67.24;102804.00;683976;28;1360;-81
2021/12/16 02:43:40;;;;;;;64.32;31.02;;;;;;;11.37;67.18;102810.09;686019;28;1104;-81
2021/12/16 02:48:27;;;;;;;62.90;31.30;;;;;;;11.31;66.86;102793.19;687480;28;1311;-81
2021/12/16 02:48:38;;;;;;;57.80;29.70;;;;;;;11.28;67.00;102798.19;693122;28;1370;-81
2021/12/16 02:49:00;;;;;;;58.15;29.13;;;;;;;11.38;66.90;102809.28;687284;28;1267;-81
2021/12/16 02:49:21;;;;;;;59.55;28.50;;;;;;;11.29;66.66;102794.81;684169;28;1334;-81
2021/12/16 02:49:44;;;;;;;59.30;28.90;;;;;;;11.33;66.51;102804.59;687640;28;1460;-81
2021/12/16 02:50:06;;;;;;;59.63;28.65;;;;;;;11.31;66.62;102803.63;684302;28;1258;-81
2021/12/16 02:50:27;;;;;;;60.15;28.88;;;;;;;11.26;66.94;102805.06;684571;28;1332;-81
2021/12/16 02:50:47;;;;;;;61.78;28.95;;;;;;;11.26;66.66;102799.84;686839;28;1164;-80
2021/12/16 02:51:20;;;;;;;60.63;28.97;;;;;;;11.27;66.66;102786.88;684403;28;1565;-81
2021/12/16 02:51:41;;;;;;;65.75;28.88;;;;;;;11.35;66.51;102814.34;687549;28;1298;-81
2021/12/16 02:52:02;;;;;;;63.43;28.27;;;;;;;11.33;66.61;102804.59;685261;28;1465;-81
2021/12/16 02:52:25;;;;;;;59.17;28.15;;;;;;;11.36;66.31;102804.78;690455;28;760;-81
2021/12/16 02:52:47;;;;;;;58.10;29.13;;;;;;;11.37;66.60;102804.88;691818;28;1333;-80
2021/12/16 02:53:07;;;;;;;58.70;29.40;;;;;;;11.34;66.55;102803.78;693536;28;1495;-80
2021/12/16 02:53:29;;;;;;;56.85;28.25;;;;;;;11.34;66.29;102806.41;689999;28;1340;-80
2021/12/16 02:53:53;;;;;;;54.45;27.38;;;;;;;11.31;66.41;102794.06;685133;28;1503;-81
2021/12/16 02:54:15;;;;;;;56.70;28.15;;;;;;;11.35;66.32;102810.81;686183;28;1348;-80
2021/12/16 02:54:36;;;;;;;57.50;28.90;;;;;;;11.32;66.06;102802.81;683827;28;1370;-81
2021/12/16 02:54:57;;;;;;;55.35;27.95;;;;;;;11.28;66.37;102787.75;690296;28;1918;-82
2021/12/16 02:55:19;;;;;;;54.45;27.83;;;;;;;11.32;66.28;102805.44;690617;28;1309;-80
2021/12/16 02:55:40;;;;;;;57.25;28.23;;;;;;;11.41;66.12;102807.69;685886;28;1408;-81
2021/12/16 02:56:03;;;;;;;59.63;28.33;;;;;;;11.43;65.96;102817.38;686679;28;1279;-81
2021/12/16 02:56:24;;;;;;;59.40;28.48;;;;;;;11.41;65.90;102813.78;687067;28;1179;-81
2021/12/16 02:56:45;;;;;;;61.30;28.70;;;;;;;11.32;66.07;102794.97;687885;28;1254;-81
2021/12/16 02:57:06;;;;;;;60.40;28.88;;;;;;;11.34;65.98;102801.19;687620;28;1398;-81
2021/12/16 02:57:27;;;;;;;59.00;28.75;;;;;;;11.42;66.00;102804.25;685497;28;1448;-81
2021/12/16 02:57:59;;;;;;;55.80;28.08;;;;;;;11.41;66.06;102800.72;686864;28;1362;-81
2021/12/16 02:58:20;;;;;;;60.85;27.98;;;;;;;11.42;66.11;102812.97;685430;28;1141;-81
2021/12/16 02:58:43;;;;;;;60.87;28.70;;;;;;;11.35;65.56;102795.13;691385;28;1446;-81
2021/12/16 02:59:04;;;;;;;59.90;28.48;;;;;;;11.35;65.84;102805.59;686255;28;1241;-81
2021/12/16 02:59:30;;;;;;;58.97;28.30;;;;;;;11.42;66.09;102810.38;683606;28;1276;-81
2021/12/16 02:59:52;;;;;;;59.65;28.92;;;;;;;11.44;65.95;102805.22;693045;28;1344;-81
2021/12/16 03:00:15;;;;;;;61.05;29.60;;;;;;;11.40;66.13;102801.53;686673;28;1336;-81
2021/12/16 03:00:43;;;;;;;62.17;29.38;;;;;;;11.37;65.84;102794.41;684960;28;1382;-81
2021/12/16 03:01:14;;;;;;;54.13;28.05;;;;;;;11.37;66.04;102801.38;687370;28;1442;-81
2021/12/16 03:01:40;;;;;;;54.60;28.70;;;;;;;11.33;66.08;102802.00;690798;28;1314;-81
2021/12/16 03:02:08;;;;;;;57.45;28.85;;;;;;;11.40;65.82;102809.38;689823;28;1427;-81
2021/12/16 03:02:31;;;;;;;60.67;28.60;;;;;;;11.42;65.72;102802.53;691492;28;1350;-81
2021/12/16 03:02:53;;;;;;;62.22;28.95;;;;;;;11.42;65.90;102802.53;687996;28;1326;-81
2021/12/16 03:03:15;;;;;;;60.67;28.90;;;;;;;11.33;66.05;102795.06;681701;28;1286;-81
2021/12/16 03:03:38;;;;;;;58.50;28.92;;;;;;;11.44;65.92;102807.84;683849;28;1463;-81
2021/12/16 03:04:01;;;;;;;59.60;28.98;;;;;;;11.45;66.02;102812.25;687307;28;1321;-81
2021/12/16 03:04:25;;;;;;;60.30;28.88;;;;;;;11.42;65.72;102804.25;688402;28;1229;-81
2021/12/16 03:04:49;;;;;;;58.85;27.20;;;;;;;11.36;65.88;102799.53;686505;28;1399;-81
2021/12/16 03:05:11;;;;;;;57.55;27.48;;;;;;;11.40;65.98;102793.69;686862;28;1278;-81
2021/12/16 03:05:32;;;;;;;58.63;27.50;;;;;;;11.40;65.88;102796.31;685119;28;1524;-81
2021/12/16 03:05:53;;;;;;;61.90;28.33;;;;;;;11.44;65.86;102802.63;686776;28;1445;-82
2021/12/16 03:06:13;;;;;;;62.53;28.90;;;;;;;11.40;65.71;102798.94;683890;28;1409;-81
2021/12/16 03:06:34;;;;;;;60.07;28.80;;;;;;;11.45;65.52;102802.72;690105;28;1579;-81
2021/12/16 03:06:58;;;;;;;55.50;27.85;;;;;;;11.45;65.74;102792.25;689983;28;1156;-81
2021/12/16 03:07:21;;;;;;;54.80;26.95;;;;;;;11.44;65.76;102806.13;687488;28;1374;-80
2021/12/16 03:07:42;;;;;;;58.78;28.27;;;;;;;11.45;65.77;102799.19;688541;28;1511;-81
2021/12/16 03:08:03;;;;;;;58.85;28.75;;;;;;;11.43;65.69;102793.84;688144;28;1075;-81
2021/12/16 03:08:25;;;;;;;60.75;28.30;;;;;;;11.38;65.84;102795.34;684383;28;1350;-81
2021/12/16 03:08:48;;;;;;;58.92;27.20;;;;;;;11.40;65.74;102800.63;686133;28;1370;-81
2021/12/16 03:09:12;;;;;;;59.75;27.65;;;;;;;11.49;65.72;102806.41;687205;28;1240;-81
2021/12/16 03:10:31;;;;;;;60.83;27.73;;;;;;;11.47;65.76;102811.53;689646;28;1265;-81
2021/12/16 03:11:26;;;;;;;61.15;28.85;;;;;;;11.46;65.47;102809.75;682082;28;1231;-81
2021/12/16 03:12:35;;;;;;;59.65;28.48;;;;;;;11.42;65.81;102801.63;688717;28;1154;-81
2021/12/16 03:13:20;;;;;;;62.53;29.15;;;;;;;11.41;66.25;102795.50;690392;28;1131;-81
2021/12/16 03:14:32;;;;;;;56.20;27.90;;;;;;;11.46;65.77;102795.75;688561;28;1426;-81
2021/12/16 03:14:36;;;;;;;59.35;27.08;;;;;;;11.41;65.73;102805.06;676982;28;1352;-81
2021/12/16 03:15:06;;;;;;;63.22;28.27;;;;;;;11.38;65.82;102803.19;684782;28;1985;-81
2021/12/16 03:17:20;;;;;;;57.88;27.38;;;;;;;11.33;65.64;102799.38;683748;28;1183;-81
2021/12/16 03:18:22;;;;;;;55.58;27.63;;;;;;;11.36;65.51;102804.78;691397;28;1337;-80
2021/12/16 03:20:17;;;;;;;55.55;26.13;;;;;;;11.31;65.76;102806.25;690489;28;1176;-81
2021/12/16 03:20:49;;;;;;;59.35;27.65;;;;;;;11.32;65.68;102805.44;690485;28;1285;-80
2021/12/16 03:21:20;;;;;;;55.80;27.42;;;;;;;11.27;65.65;102796.41;687064;28;1076;-80
2021/12/16 03:21:49;;;;;;;51.70;26.75;;;;;;;11.33;65.96;102812.47;684519;28;1271;-81
2021/12/16 03:22:20;;;;;;;50.22;25.75;;;;;;;11.31;65.66;102812.34;687834;28;1270;-81
2021/12/16 03:22:58;;;;;;;56.88;25.58;;;;;;;11.25;66.04;102801.56;687422;28;1133;-81
2021/12/16 03:27:36;;;;;;;57.13;27.33;;;;;;;11.28;65.55;102801.72;687395;28;1435;-80
2021/12/16 03:30:57;;;;;;;54.42;25.25;;;;;;;11.28;65.82;102803.44;687737;28;1198;-81
2021/12/16 03:34:27;;;;;;;57.75;26.60;;;;;;;11.26;65.95;102812.91;684713;28;1280;-80
2021/12/16 03:35:29;;;;;;;61.58;27.95;;;;;;;11.30;65.71;102813.16;689029;28;1961;-81
2021/12/16 03:37:15;;;;;;;59.92;27.48;;;;;;;11.29;65.61;102810.50;690112;28;1253;-81
2021/12/16 03:37:36;;;;;;;59.22;27.60;;;;;;;11.32;65.66;102824.59;686499;28;1345;-81
2021/12/16 03:38:00;;;;;;;61.08;26.95;;;;;;;11.29;65.66;102820.94;683450;28;1295;-81
2021/12/16 03:38:21;;;;;;;60.28;26.33;;;;;;;11.16;66.02;102808.84;685188;28;1315;-81
2021/12/16 03:38:44;;;;;;;61.97;26.43;;;;;;;11.19;66.05;102809.94;684402;28;1214;-81
2021/12/16 03:39:09;;;;;;;59.92;26.75;;;;;;;11.24;65.91;102802.34;682082;28;1402;-81
2021/12/16 03:39:32;;;;;;;58.28;27.08;;;;;;;11.24;65.95;102808.50;684639;28;1274;-81
2021/12/16 03:39:58;;;;;;;60.72;27.67;;;;;;;11.28;66.04;102811.28;690203;28;1356;-80
2021/12/16 03:40:21;;;;;;;58.55;26.98;;;;;;;11.13;65.91;102812.22;687944;28;1390;-81
2021/12/16 03:40:42;;;;;;;55.35;27.10;;;;;;;11.21;66.00;102810.94;687012;28;1336;-81
2021/12/16 03:41:06;;;;;;;58.30;27.13;;;;;;;11.30;66.04;102826.25;683732;28;1284;-81
2021/12/16 03:41:28;;;;;;;56.65;27.85;;;;;;;11.34;65.89;102830.84;692863;28;1235;-81
2021/12/16 03:41:49;;;;;;;57.10;28.17;;;;;;;11.23;65.82;102809.31;690868;28;1572;-81
2021/12/16 03:42:11;;;;;;;53.10;26.95;;;;;;;11.23;65.93;102813.63;687636;28;1170;-81
2021/12/16 03:42:41;;;;;;;57.25;26.80;;;;;;;11.26;65.66;102818.13;683703;28;1093;-81
2021/12/16 03:43:10;;;;;;;58.13;26.92;;;;;;;11.31;65.85;102832.38;685942;28;1504;-80
2021/12/16 03:43:33;;;;;;;55.72;26.95;;;;;;;11.29;65.74;102826.19;682563;29;1414;-80
2021/12/16 03:43:57;;;;;;;53.20;26.85;;;;;;;11.26;65.80;102812.91;687548;28;1542;-81
2021/12/16 03:44:26;;;;;;;53.25;27.00;;;;;;;11.29;65.64;102820.94;684210;28;1317;-81
2021/12/16 03:44:52;;;;;;;59.42;28.23;;;;;;;11.35;65.78;102826.50;683086;28;1115;-81
2021/12/16 03:46:26;;;;;;;61.33;28.42;;;;;;;11.44;65.59;102831.38;684664;28;1362;-81
2021/12/16 03:46:50;;;;;;;62.55;28.52;;;;;;;11.35;65.56;102821.28;689640;28;1209;-82
2021/12/16 03:47:11;;;;;;;62.53;28.50;;;;;;;11.30;65.86;102817.53;689091;28;1255;-81
2021/12/16 03:47:43;;;;;;;58.22;27.38;;;;;;;11.35;65.84;102832.66;687625;28;1187;-81
2021/12/16 03:48:13;;;;;;;57.65;26.55;;;;;;;11.40;65.61;102838.16;682764;28;1195;-80
2021/12/16 03:48:55;;;;;;;57.05;26.38;;;;;;;11.35;65.62;102823.88;685152;28;1281;-81
2021/12/16 03:49:23;;;;;;;54.25;25.58;;;;;;;11.34;65.62;102825.63;689230;28;1373;-81
2021/12/16 03:49:45;;;;;;;57.72;26.70;;;;;;;11.31;65.83;102816.69;686881;28;1377;-81
2021/12/16 03:50:14;;;;;;;60.80;26.50;;;;;;;11.41;65.87;102833.81;689672;28;1266;-80
2021/12/16 03:50:36;;;;;;;56.80;26.73;;;;;;;11.34;65.46;102815.16;690045;28;1158;-81
2021/12/16 03:51:01;;;;;;;58.95;27.70;;;;;;;11.35;65.46;102827.44;688072;28;1103;-81
2021/12/16 03:51:39;;;;;;;59.90;28.42;;;;;;;11.43;65.35;102825.22;693588;28;1186;-80
2021/12/16 03:52:06;;;;;;;58.33;27.00;;;;;;;11.34;65.55;102812.56;693291;28;1488;-80
2021/12/16 03:52:29;;;;;;;56.30;26.75;;;;;;;11.40;65.43;102818.94;690353;28;1358;-81
2021/12/16 03:52:50;;;;;;;58.45;27.70;;;;;;;11.44;65.27;102827.03;685522;28;1049;-81
2021/12/16 03:53:43;;;;;;;57.45;27.48;;;;;;;11.44;65.44;102836.59;688009;28;1369;-81
2021/12/16 03:54:14;;;;;;;59.20;27.17;;;;;;;11.32;65.26;102813.28;686964;28;1222;-81
2021/12/16 03:54:45;;;;;;;60.53;27.25;;;;;;;11.35;65.59;102821.28;685417;28;1467;-81
2021/12/16 03:55:09;;;;;;;61.85;27.35;;;;;;;11.42;65.56;102833.00;682685;28;1478;-81
2021/12/16 03:55:31;;;;;;;64.53;28.00;;;;;;;11.36;65.58;102817.84;684821;28;1354;-81
2021/12/16 03:55:52;;;;;;;63.57;28.27;;;;;;;11.33;65.41;102828.13;682460;29;1288;-80
2021/12/16 03:56:14;;;;;;;60.92;27.77;;;;;;;11.30;65.49;102817.53;682273;28;1536;-81
2021/12/16 03:56:57;;;;;;;59.00;27.35;;;;;;;11.30;65.89;102823.63;683247;28;1598;-81
2021/12/16 03:57:22;;;;;;;57.78;27.08;;;;;;;11.34;65.96;102832.56;684097;28;1124;-80
2021/12/16 03:57:44;;;;;;;59.92;26.98;;;;;;;11.42;65.59;102836.50;687294;28;1187;-81
2021/12/16 03:58:09;;;;;;;60.80;26.23;;;;;;;11.42;65.41;102828.66;687336;28;1256;-81
2021/12/16 03:58:31;;;;;;;57.40;26.15;;;;;;;11.31;65.22;102811.47;685932;28;1438;-81
2021/12/16 03:58:53;;;;;;;60.50;28.35;;;;;;;11.41;65.62;102831.22;686050;28;1375;-81
2021/12/16 03:59:18;;;;;;;62.42;27.92;;;;;;;11.26;65.63;102807.69;687627;28;1228;-81
2021/12/16 03:59:52;;;;;;;60.95;25.98;;;;;;;11.29;65.71;102820.94;688789;28;1294;-81
2021/12/16 04:00:41;;;;;;;57.03;27.10;;;;;;;11.31;65.50;102824.53;690323;28;1266;-81
2021/12/16 04:01:07;;;;;;;57.08;26.80;;;;;;;11.40;65.41;102827.69;683709;28;1263;-81
2021/12/16 04:01:29;;;;;;;59.30;26.65;;;;;;;11.29;65.51;102818.34;683162;28;1373;-81
2021/12/16 04:01:54;;;;;;;60.55;27.75;;;;;;;11.28;65.62;102821.72;688083;28;1301;-81
2021/12/16 04:02:29;;;;;;;60.80;29.02;;;;;;;11.23;65.42;102817.16;687036;28;1354;-81
2021/12/16 04:02:51;;;;;;;61.70;29.05;;;;;;;11.31;65.76;102835.00;687820;28;1245;-81
2021/12/16 04:03:18;;;;;;;60.53;27.70;;;;;;;11.28;65.82;102824.34;682972;28;1461;-80
2021/12/16 04:03:39;;;;;;;63.03;27.60;;;;;;;11.20;65.60;102811.72;685389;28;1275;-81
2021/12/16 04:04:00;;;;;;;61.35;26.70;;;;;;;11.18;65.72;102818.59;687748;28;1435;-81
2021/12/16 04:04:21;;;;;;;55.25;26.05;;;;;;;11.20;65.55;102821.31;685394;28;1023;-81
2021/12/16 04:04:44;;;;;;;55.92;25.98;;;;;;;11.23;65.87;102827.59;685368;28;1530;-80
2021/12/16 04:05:08;;;;;;;55.58;26.25;;;;;;;11.23;65.94;102822.38;688485;28;1449;-80
2021/12/16 04:05:32;;;;;;;58.83;27.10;;;;;;;11.27;65.88;102831.31;684697;28;1518;-81
2021/12/16 04:05:58;;;;;;;56.60;27.60;;;;;;;11.29;65.78;102831.41;685272;28;1295;-81
2021/12/16 04:06:20;;;;;;;56.42;27.23;;;;;;;11.27;65.74;102828.69;687449;28;1764;-80
2021/12/16 04:06:41;;;;;;;57.72;26.88;;;;;;;11.22;65.62;102830.13;692364;28;1268;-81
2021/12/16 04:07:07;;;;;;;57.75;26.35;;;;;;;11.19;65.76;102835.19;690182;28;1220;-81
2021/12/16 04:07:43;;;;;;;55.85;26.42;;;;;;;11.23;65.88;102837.16;684570;28;1451;-81
2021/12/16 04:08:11;;;;;;;60.75;28.23;;;;;;;11.21;66.18;102839.69;686412;28;1330;-81
2021/12/16 04:08:43;;;;;;;60.90;28.00;;;;;;;11.16;65.87;102830.66;690757;28;1273;-81
2021/12/16 04:09:07;;;;;;;59.42;27.50;;;;;;;11.17;65.99;102832.47;690239;28;1368;-81
2021/12/16 04:09:32;;;;;;;60.67;27.83;;;;;;;11.14;66.06;102820.94;688587;28;1471;-81
2021/12/16 04:10:18;;;;;;;61.95;27.40;;;;;;;11.25;66.14;102843.38;689594;28;1379;-81
2021/12/16 04:11:00;;;;;;;62.85;27.17;;;;;;;11.12;66.25;102833.91;689942;28;1309;-81
2021/12/16 04:11:26;;;;;;;60.72;26.60;;;;;;;11.20;66.08;102827.41;685314;28;1089;-81
2021/12/16 04:12:07;;;;;;;62.13;27.15;;;;;;;11.24;66.21;102834.63;688213;28;1087;-80